Time;durP1;ratioP1;P1;durP2;ratioP2;P2;SDS_P1;SDS_P2;PMS_P1;PMS_P2;Temp;Humidity;BMP_temperature;BMP_pressure;BME280_temperature;BME280_humidity;BME280_pressure;Samples;Min_cycle;Max_cycle;Signal;HPM_P1;HPM_P2
2022/09/15 00:12:05;;;;;;;;;;;;;;;15.23;69.88;99372.19;5972896;22;1679;-62
2022/09/15 00:14:32;;;;;;;;;;;;;;;15.15;70.31;99362.53;5012065;28;857;-60
2022/09/15 00:16:58;;;;;;;;;;;;;;;15.18;70.58;99360.84;5012645;28;861;-60
2022/09/15 00:19:25;;;;;;;;;;;;;;;15.27;70.13;99360.97;5012590;28;939;-62
2022/09/15 00:21:51;;;;;;;;;;;;;;;15.39;69.72;99364.97;5012556;28;909;-62
2022/09/15 00:24:18;;;;;;;;;;;;;;;15.55;69.10;99361.28;5012490;28;889;-60
2022/09/15 00:26:44;;;;;;;;;;;;;;;15.63;68.87;99368.97;5012686;28;963;-60
2022/09/15 00:29:10;;;;;;;;;;;;;;;15.64;68.57;99370.53;5012693;28;1927;-61
2022/09/15 00:31:37;;;;;;;;;;;;;;;15.55;68.68;99366.84;5012436;28;806;-60
2022/09/15 00:34:05;;;;;;;;;;;;;;;15.47;68.67;99375.44;5012300;28;889;-61
2022/09/15 00:36:34;;;;;;;;;;;;;;;15.39;68.91;99373.34;5011111;28;860;-61
2022/09/15 00:39:02;;;;;;;;;;;;;;;15.29;69.15;99376.00;5012284;28;807;-61
2022/09/15 00:41:29;;;;;;;;;;;;;;;15.15;69.44;99373.66;5012131;28;897;-60
2022/09/15 00:44:00;;;;;;;;;;;;;;;15.05;69.85;99369.19;5012508;28;818;-61
2022/09/15 00:46:32;;;;;;;;;;;;;;;14.96;70.06;99371.88;5012215;28;807;-60
2022/09/15 00:49:25;;;;;;;;;;;;;;;14.93;70.32;99373.50;5012560;28;846;-61
2022/09/15 00:51:55;;;;;;;;;;;;;;;14.87;70.58;99359.38;5011227;28;1033;-61
2022/09/15 00:54:34;;;;;;;;;;;;;;;14.80;70.83;99372.72;5012283;28;1067;-61
2022/09/15 00:57:02;;;;;;;;;;;;;;;14.82;70.96;99365.47;5012032;28;834;-61
2022/09/15 00:59:31;;;;;;;;;;;;;;;14.86;70.96;99360.59;5012516;28;858;-61
2022/09/15 01:02:14;;;;;;;;;;;;;;;14.92;70.79;99362.84;5012071;28;862;-61
2022/09/15 01:04:41;;;;;;;;;;;;;;;15.02;70.55;99348.59;5011954;28;791;-61
2022/09/15 01:07:12;;;;;;;;;;;;;;;15.05;70.38;99344.91;5011863;28;854;-61
2022/09/15 01:09:48;;;;;;;;;;;;;;;14.97;70.62;99346.34;5012008;28;1886;-61
2022/09/15 01:12:15;;;;;;;;;;;;;;;14.93;70.86;99347.69;5016823;28;1363;-62
2022/09/15 01:14:42;;;;;;;;;;;;;;;15.10;70.31;99332.44;5051462;28;853;-61
2022/09/15 01:17:08;;;;;;;;;;;;;;;15.13;70.05;99331.56;5051466;28;845;-61
2022/09/15 01:19:36;;;;;;;;;;;;;;;15.09;70.30;99331.69;5051399;28;806;-61
2022/09/15 01:22:15;;;;;;;;;;;;;;;14.99;70.55;99335.56;5051562;28;926;-62
2022/09/15 01:24:45;;;;;;;;;;;;;;;14.92;70.88;99335.78;5050292;28;1184;-61
2022/09/15 01:27:13;;;;;;;;;;;;;;;14.89;70.99;99331.09;5054823;28;868;-61
2022/09/15 01:29:43;;;;;;;;;;;;;;;14.89;71.25;99333.88;5055440;28;2357;-61
2022/09/15 01:35:07;;;;;;;;;;;;;;;14.88;71.21;99332.34;5055383;28;633;-62
2022/09/15 01:37:37;;;;;;;;;;;;;;;14.79;71.55;99335.78;5055296;28;814;-61
2022/09/15 01:40:05;;;;;;;;;;;;;;;14.78;71.48;99327.84;5070626;28;786;-61
2022/09/15 01:42:33;;;;;;;;;;;;;;;14.75;71.35;99318.41;5055672;28;830;-62
2022/09/15 01:45:25;;;;;;;;;;;;;;;14.63;71.89;99314.38;5055458;28;837;-62
2022/09/15 01:47:53;;;;;;;;;;;;;;;14.53;72.35;99325.78;5053309;28;1162;-62
2022/09/15 01:50:23;;;;;;;;;;;;;;;14.50;72.56;99322.66;5055340;28;1953;-61
2022/09/15 01:52:55;;;;;;;;;;;;;;;14.45;72.79;99314.88;5055048;28;802;-62
2022/09/15 01:55:42;;;;;;;;;;;;;;;14.50;72.66;99319.09;5054972;28;880;-61
2022/09/15 01:58:09;;;;;;;;;;;;;;;14.71;71.98;99320.50;5054899;28;1143;-60
2022/09/15 02:00:38;;;;;;;;;;;;;;;14.87;71.42;99314.06;5054883;28;830;-61
2022/09/15 02:03:16;;;;;;;;;;;;;;;14.91;71.15;99314.75;5054827;28;810;-61
2022/09/15 02:05:47;;;;;;;;;;;;;;;14.93;71.11;99322.66;5054880;28;797;-61
2022/09/15 02:08:24;;;;;;;;;;;;;;;14.95;70.97;99320.97;5070154;28;1273;-61
2022/09/15 02:10:56;;;;;;;;;;;;;;;14.88;70.96;99321.19;5054592;28;1894;-62
2022/09/15 02:13:33;;;;;;;;;;;;;;;14.83;70.96;99328.09;5054367;28;1419;-62
2022/09/15 02:16:01;;;;;;;;;;;;;;;14.80;70.94;99317.06;5054813;28;793;-61
2022/09/15 02:18:44;;;;;;;;;;;;;;;14.69;71.26;99315.38;5054572;28;793;-61
2022/09/15 02:21:17;;;;;;;;;;;;;;;14.54;71.76;99313.44;5054554;28;818;-61
2022/09/15 02:23:49;;;;;;;;;;;;;;;14.38;72.38;99319.84;5054475;28;877;-61
2022/09/15 02:26:18;;;;;;;;;;;;;;;14.35;73.10;99320.72;5054829;28;873;-61
2022/09/15 02:28:47;;;;;;;;;;;;;;;14.56;73.21;99331.28;5054634;28;857;-61
2022/09/15 02:31:15;;;;;;;;;;;;;;;14.77;72.77;99317.97;5054362;28;1914;-60
2022/09/15 02:33:44;;;;;;;;;;;;;;;14.98;72.43;99308.97;5054277;28;814;-61
2022/09/15 02:36:14;;;;;;;;;;;;;;;15.12;72.23;99318.88;5054458;28;834;-62
2022/09/15 02:38:45;;;;;;;;;;;;;;;15.09;72.11;99301.06;5053495;28;922;-61
2022/09/15 02:41:12;;;;;;;;;;;;;;;15.09;72.67;99319.78;5054065;28;893;-61
2022/09/15 02:43:46;;;;;;;;;;;;;;;15.15;72.66;99317.19;5054087;28;860;-60
2022/09/15 02:46:14;;;;;;;;;;;;;;;15.34;72.13;99318.19;5054395;28;846;-61
2022/09/15 02:48:41;;;;;;;;;;;;;;;15.42;71.81;99306.38;5054278;28;815;-60
2022/09/15 02:51:08;;;;;;;;;;;;;;;15.38;71.92;99316.84;5054178;28;1894;-60
2022/09/15 02:53:35;;;;;;;;;;;;;;;15.31;72.05;99314.31;5054087;28;885;-60
2022/09/15 02:56:05;;;;;;;;;;;;;;;15.34;72.16;99316.22;5054149;28;838;-61
2022/09/15 02:58:32;;;;;;;;;;;;;;;15.35;72.14;99308.63;5053808;28;810;-61
2022/09/15 03:01:08;;;;;;;;;;;;;;;15.38;72.11;99308.50;5053827;28;783;-61
2022/09/15 03:03:35;;;;;;;;;;;;;;;15.40;72.00;99316.41;5053707;28;786;-61
2022/09/15 03:06:20;;;;;;;;;;;;;;;15.30;72.39;99319.09;5053696;28;857;-60
2022/09/15 03:08:57;;;;;;;;;;;;;;;15.22;72.71;99323.31;5053498;28;1144;-61
2022/09/15 03:11:25;;;;;;;;;;;;;;;15.38;72.54;99322.41;5053467;28;1941;-61
2022/09/15 03:13:53;;;;;;;;;;;;;;;15.35;72.36;99320.53;5053420;28;1181;-60
2022/09/15 03:16:20;;;;;;;;;;;;;;;15.23;72.73;99336.00;5053736;28;803;-60
2022/09/15 03:18:47;;;;;;;;;;;;;;;15.16;73.20;99335.47;5069327;28;1322;-60
2022/09/15 03:21:14;;;;;;;;;;;;;;;15.13;73.28;99325.22;5053557;28;818;-61
2022/09/15 03:23:43;;;;;;;;;;;;;;;15.08;73.64;99334.91;5053659;28;782;-61
2022/09/15 03:26:10;;;;;;;;;;;;;;;15.07;73.90;99327.78;5053276;28;795;-60
2022/09/15 03:28:37;;;;;;;;;;;;;;;15.08;73.86;99335.69;5053297;28;829;-62
2022/09/15 03:31:05;;;;;;;;;;;;;;;15.02;74.17;99343.03;5053289;28;1917;-61
2022/09/15 03:33:32;;;;;;;;;;;;;;;14.97;74.33;99338.00;5053170;28;1004;-61
2022/09/15 03:36:02;;;;;;;;;;;;;;;14.95;74.55;99348.81;5053158;28;822;-61
2022/09/15 03:38:29;;;;;;;;;;;;;;;14.91;74.80;99342.56;5052993;28;794;-61
2022/09/15 03:41:06;;;;;;;;;;;;;;;14.97;74.84;99340.78;5053060;28;794;-62
2022/09/15 03:43:33;;;;;;;;;;;;;;;15.02;74.73;99331.09;5052937;28;873;-61
2022/09/15 03:46:01;;;;;;;;;;;;;;;15.05;74.50;99341.38;5052967;28;802;-61
2022/09/15 03:48:29;;;;;;;;;;;;;;;14.99;74.80;99343.91;5052830;28;798;-61
2022/09/15 03:50:56;;;;;;;;;;;;;;;14.91;74.94;99345.34;5050744;28;1945;-63
2022/09/15 03:53:23;;;;;;;;;;;;;;;14.92;74.92;99346.16;5052761;28;842;-61
2022/09/15 03:55:49;;;;;;;;;;;;;;;14.96;75.19;99344.03;5052740;28;834;-61
2022/09/15 03:58:17;;;;;;;;;;;;;;;14.96;75.13;99344.81;5052645;28;804;-61
2022/09/15 04:00:45;;;;;;;;;;;;;;;14.97;75.10;99348.38;5052843;28;778;-61
2022/09/15 04:03:15;;;;;;;;;;;;;;;14.98;75.20;99344.34;5052582;28;817;-61
2022/09/15 04:05:42;;;;;;;;;;;;;;;15.10;74.91;99346.38;5052747;28;817;-61
2022/09/15 04:08:23;;;;;;;;;;;;;;;15.19;74.51;99348.47;5052651;28;802;-61
2022/09/15 04:10:50;;;;;;;;;;;;;;;15.16;74.34;99344.59;5052330;28;1890;-61
2022/09/15 04:13:16;;;;;;;;;;;;;;;15.15;74.34;99345.81;5052264;28;1214;-62
2022/09/15 04:15:43;;;;;;;;;;;;;;;15.23;73.79;99349.94;5052577;28;809;-61
2022/09/15 04:18:10;;;;;;;;;;;;;;;15.28;73.58;99340.25;5052296;28;818;-61
2022/09/15 04:20:37;;;;;;;;;;;;;;;15.30;73.67;99337.81;5052233;28;882;-61
2022/09/15 04:23:04;;;;;;;;;;;;;;;15.34;73.48;99320.97;5052205;28;881;-61
2022/09/15 04:25:30;;;;;;;;;;;;;;;15.41;73.31;99334.69;5067528;28;1348;-62
2022/09/15 04:27:57;;;;;;;;;;;;;;;15.47;73.27;99336.47;5052127;28;838;-62
2022/09/15 04:30:24;;;;;;;;;;;;;;;15.55;72.91;99334.19;5067339;28;1914;-61
2022/09/15 04:32:51;;;;;;;;;;;;;;;15.70;72.27;99326.97;5067429;28;1151;-61
2022/09/15 04:35:17;;;;;;;;;;;;;;;15.85;71.89;99323.69;5051951;28;818;-61
2022/09/15 04:37:44;;;;;;;;;;;;;;;15.98;71.34;99321.66;5051894;28;837;-61
2022/09/15 04:40:11;;;;;;;;;;;;;;;16.12;70.76;99323.94;5051946;28;877;-61
2022/09/15 04:43:12;;;;;;;;;;;;;;;16.29;69.74;99324.53;5052098;28;821;-62
2022/09/15 04:45:39;;;;;;;;;;;;;;;16.48;68.81;99331.03;5046455;28;1196;-61
2022/09/15 04:48:06;;;;;;;;;;;;;;;16.61;68.30;99322.59;5052094;28;802;-61
2022/09/15 04:50:32;;;;;;;;;;;;;;;16.76;67.82;99322.84;5051718;28;1890;-61
2022/09/15 04:52:59;;;;;;;;;;;;;;;16.91;67.38;99318.28;5051739;28;841;-62
2022/09/15 04:55:26;;;;;;;;;;;;;;;17.12;66.89;99325.06;5067138;28;1206;-61
2022/09/15 04:57:52;;;;;;;;;;;;;;;17.33;66.36;99328.25;5067331;28;1385;-61
2022/09/15 05:00:19;;;;;;;;;;;;;;;17.53;65.69;99333.41;5051601;28;834;-60
2022/09/15 05:02:46;;;;;;;;;;;;;;;17.63;65.22;99331.44;5051676;28;861;-61
2022/09/15 05:05:12;;;;;;;;;;;;;;;17.81;64.51;99334.25;5051633;28;845;-61
2022/09/15 05:07:39;;;;;;;;;;;;;;;17.94;64.17;99331.34;5051709;28;798;-62
2022/09/15 05:10:06;;;;;;;;;;;;;;;18.04;63.59;99332.13;5051520;28;1885;-62
2022/09/15 05:12:35;;;;;;;;;;;;;;;18.11;63.21;99327.00;5051307;28;1200;-61
2022/09/15 05:15:03;;;;;;;;;;;;;;;18.26;62.93;99340.38;5066954;28;1218;-61
2022/09/15 05:17:41;;;;;;;;;;;;;;;18.29;62.35;99331.81;5051405;28;921;-61
2022/09/15 05:20:08;;;;;;;;;;;;;;;18.25;62.45;99334.00;5050098;28;1184;-62
2022/09/15 05:22:35;;;;;;;;;;;;;;;18.31;62.36;99339.75;5051361;28;826;-62
2022/09/15 05:25:03;;;;;;;;;;;;;;;18.35;62.15;99338.34;5051359;28;794;-62
2022/09/15 05:27:33;;;;;;;;;;;;;;;18.41;62.10;99338.47;5051343;28;856;-61
2022/09/15 05:30:00;;;;;;;;;;;;;;;18.53;61.81;99340.34;5051233;28;1909;-61
2022/09/15 05:32:26;;;;;;;;;;;;;;;18.62;61.59;99347.94;5051315;28;823;-61
2022/09/15 05:34:53;;;;;;;;;;;;;;;18.71;61.42;99352.75;5051225;28;842;-61
2022/09/15 05:37:19;;;;;;;;;;;;;;;18.87;60.86;99355.25;5051322;28;814;-61
2022/09/15 05:39:46;;;;;;;;;;;;;;;18.84;61.13;99347.00;5051208;28;877;-62
2022/09/15 05:42:13;;;;;;;;;;;;;;;18.93;61.20;99350.56;5051205;28;885;-62
2022/09/15 05:44:40;;;;;;;;;;;;;;;19.12;61.08;99348.47;5051192;28;794;-61
2022/09/15 05:47:06;;;;;;;;;;;;;;;19.48;60.16;99346.78;5051231;28;821;-62
2022/09/15 05:49:33;;;;;;;;;;;;;;;19.81;59.06;99351.59;5051173;28;1941;-61
2022/09/15 05:51:59;;;;;;;;;;;;;;;20.02;58.24;99352.53;5051151;28;876;-60
2022/09/15 05:54:26;;;;;;;;;;;;;;;20.06;57.58;99357.97;5051064;28;917;-60
2022/09/15 05:56:52;;;;;;;;;;;;;;;20.16;57.62;99349.03;5051072;28;894;-61
2022/09/15 05:59:19;;;;;;;;;;;;;;;20.53;56.80;99345.88;5049853;28;834;-62
2022/09/15 06:01:46;;;;;;;;;;;;;;;20.70;55.97;99345.44;5049680;28;1317;-62
2022/09/15 06:04:12;;;;;;;;;;;;;;;20.67;55.81;99344.38;5051078;28;853;-62
2022/09/15 06:06:39;;;;;;;;;;;;;;;20.71;55.64;99342.13;5066312;28;1170;-62
2022/09/15 06:09:06;;;;;;;;;;;;;;;20.79;55.38;99346.13;5050961;28;870;-61
2022/09/15 06:11:33;;;;;;;;;;;;;;;20.66;55.73;99340.03;5050921;28;1957;-61
2022/09/15 06:14:02;;;;;;;;;;;;;;;20.47;55.96;99330.97;5053489;28;1260;-61
2022/09/15 06:16:30;;;;;;;;;;;;;;;20.47;56.10;99327.41;5054613;28;822;-61
2022/09/15 06:18:58;;;;;;;;;;;;;;;20.55;56.07;99334.19;5054759;28;814;-61
2022/09/15 06:21:25;;;;;;;;;;;;;;;20.88;55.34;99333.25;5054525;28;804;-61
2022/09/15 06:23:53;;;;;;;;;;;;;;;21.31;54.42;99336.47;5054474;28;841;-62
2022/09/15 06:26:20;;;;;;;;;;;;;;;21.75;53.09;99347.63;5054494;28;810;-61
2022/09/15 06:28:48;;;;;;;;;;;;;;;22.37;51.38;99342.00;5054384;28;813;-61
2022/09/15 06:31:15;;;;;;;;;;;;;;;23.04;49.95;99339.06;5054290;28;1973;-61
2022/09/15 06:33:43;;;;;;;;;;;;;;;23.54;48.40;99337.88;5054284;28;806;-61
2022/09/15 06:36:12;;;;;;;;;;;;;;;23.79;48.03;99345.50;5054190;28;1284;-61
2022/09/15 06:38:39;;;;;;;;;;;;;;;24.13;47.33;99340.00;5054488;28;885;-62
2022/09/15 06:41:06;;;;;;;;;;;;;;;24.51;46.83;99342.69;5054261;28;850;-61
2022/09/15 06:46:35;;;;;;;;;;;;;;;24.68;46.21;99334.25;5054308;28;621;-61
2022/09/15 06:49:02;;;;;;;;;;;;;;;24.42;46.92;99338.03;5054214;28;888;-60
2022/09/15 06:51:34;;;;;;;;;;;;;;;24.33;46.88;99333.38;5054195;28;1953;-60
2022/09/15 06:54:01;;;;;;;;;;;;;;;24.09;47.32;99342.28;5054563;28;770;-60
2022/09/15 06:56:28;;;;;;;;;;;;;;;23.99;47.36;99336.09;5053935;28;878;-60
2022/09/15 06:58:55;;;;;;;;;;;;;;;24.26;47.01;99333.88;5053980;28;858;-61
2022/09/15 07:01:24;;;;;;;;;;;;;;;24.76;46.21;99324.75;5053854;28;880;-61
2022/09/15 07:03:51;;;;;;;;;;;;;;;25.22;45.50;99328.34;5053992;28;799;-61
2022/09/15 07:06:17;;;;;;;;;;;;;;;25.41;44.80;99326.56;5053772;28;786;-60
2022/09/15 07:08:45;;;;;;;;;;;;;;;25.50;44.93;99319.84;5053885;28;849;-61
2022/09/15 07:11:13;;;;;;;;;;;;;;;25.45;44.40;99332.72;5053668;28;1890;-61
2022/09/15 07:13:39;;;;;;;;;;;;;;;25.35;44.55;99327.81;5053489;28;1285;-61
2022/09/15 07:16:08;;;;;;;;;;;;;;;25.20;45.04;99328.09;5053655;28;799;-60
2022/09/15 07:18:34;;;;;;;;;;;;;;;25.29;45.14;99327.84;5068881;28;1408;-61
2022/09/15 07:21:02;;;;;;;;;;;;;;;25.49;44.63;99315.47;5052171;28;1207;-61
2022/09/15 07:23:29;;;;;;;;;;;;;;;25.53;44.93;99318.03;5053277;28;877;-60
2022/09/15 07:26:06;;;;;;;;;;;;;;;26.03;43.69;99320.72;5053272;28;857;-61
2022/09/15 07:28:34;;;;;;;;;;;;;;;26.78;41.97;99316.94;5053507;28;823;-60
2022/09/15 07:31:02;;;;;;;;;;;;;;;26.98;40.86;99321.41;5053129;28;1975;-60
2022/09/15 07:33:29;;;;;;;;;;;;;;;27.26;40.08;99309.06;5053209;28;834;-60
2022/09/15 07:35:56;;;;;;;;;;;;;;;27.70;39.29;99307.06;5053048;28;842;-61
2022/09/15 07:38:22;;;;;;;;;;;;;;;28.18;38.40;99316.03;5052991;28;854;-61
2022/09/15 07:40:49;;;;;;;;;;;;;;;28.16;38.79;99315.81;5053276;28;826;-61
2022/09/15 07:43:16;;;;;;;;;;;;;;;28.60;37.63;99308.75;5051679;28;1329;-62
2022/09/15 07:45:43;;;;;;;;;;;;;;;28.85;37.01;99306.53;5053001;28;865;-61
2022/09/15 07:48:10;;;;;;;;;;;;;;;29.11;36.71;99307.94;5052843;28;904;-61
2022/09/15 07:50:37;;;;;;;;;;;;;;;29.24;36.77;99307.22;5052891;28;1969;-60
2022/09/15 07:53:03;;;;;;;;;;;;;;;29.46;35.36;99303.94;5052770;28;802;-60
2022/09/15 07:55:30;;;;;;;;;;;;;;;29.21;36.17;99309.06;5052782;28;825;-60
2022/09/15 07:57:58;;;;;;;;;;;;;;;29.39;35.70;99301.00;5052939;28;869;-60
2022/09/15 08:00:25;;;;;;;;;;;;;;;29.49;35.01;99300.00;5052684;28;798;-60
2022/09/15 08:02:51;;;;;;;;;;;;;;;29.89;35.16;99291.47;5052600;28;786;-61
2022/09/15 08:05:18;;;;;;;;;;;;;;;30.17;34.14;99295.81;5052542;28;913;-60
2022/09/15 08:07:45;;;;;;;;;;;;;;;30.17;34.60;99295.81;5052570;28;842;-60
2022/09/15 08:10:11;;;;;;;;;;;;;;;30.33;33.38;99302.47;5052366;28;1951;-61
2022/09/15 08:12:39;;;;;;;;;;;;;;;30.45;33.20;99300.09;5052352;28;1109;-61
2022/09/15 08:15:06;;;;;;;;;;;;;;;30.40;33.90;99292.47;5052416;28;814;-62
2022/09/15 08:17:37;;;;;;;;;;;;;;;30.64;32.93;99288.50;5052352;28;865;-61
2022/09/15 08:20:04;;;;;;;;;;;;;;;30.46;33.10;99293.09;5052295;28;802;-61
2022/09/15 08:34:41;;;;;;;;;;;;;;;30.51;33.50;99292.19;5052202;28;632;-62
2022/09/15 08:40:35;;;;;;;;;;;;;;;30.48;32.79;99282.66;5035785;28;1127;-62
2022/09/15 08:43:11;;;;;;;;;;;;;;;31.01;32.52;99286.59;5051960;28;846;-61
2022/09/15 08:45:45;;;;;;;;;;;;;;;31.18;32.34;99294.72;5051850;28;861;-61
2022/09/15 08:48:14;;;;;;;;;;;;;;;31.19;31.64;99291.31;5051857;28;806;-61
2022/09/15 08:50:47;;;;;;;;;;;;;;;31.19;30.94;99287.69;5051709;28;1894;-62
2022/09/15 08:56:17;;;;;;;;;;;;;;;30.98;31.65;99274.19;5051790;28;617;-63
2022/09/15 08:58:47;;;;;;;;;;;;;;;31.24;31.07;99278.19;5051616;28;867;-63
2022/09/15 09:01:22;;;;;;;;;;;;;;;31.11;31.10;99281.91;5051675;28;888;-63
2022/09/15 09:03:49;;;;;;;;;;;;;;;31.16;31.33;99275.31;5051552;28;885;-63
2022/09/15 09:06:28;;;;;;;;;;;;;;;30.96;30.31;99273.25;5050294;28;1163;-64
2022/09/15 09:09:10;;;;;;;;;;;;;;;30.71;30.69;99274.34;5066939;28;1206;-62
2022/09/15 09:11:36;;;;;;;;;;;;;;;31.02;31.04;99259.59;5051523;28;1881;-62
2022/09/15 09:14:12;;;;;;;;;;;;;;;31.05;30.81;99264.19;5051519;28;1276;-62
2022/09/15 09:16:57;;;;;;;;;;;;;;;30.90;31.22;99267.69;5051658;28;885;-62
2022/09/15 09:31:36;;;;;;;;;;;;;;;30.51;30.78;99253.06;5051604;28;1910;-62
2022/09/15 09:34:20;;;;;;;;;;;;;;;30.46;30.90;99253.19;5051200;28;871;-62
2022/09/15 09:36:54;;;;;;;;;;;;;;;30.66;31.03;99254.50;5051498;28;845;-62
2022/09/15 09:39:21;;;;;;;;;;;;;;;30.62;31.07;99257.72;5051304;28;857;-62
2022/09/15 09:41:59;;;;;;;;;;;;;;;30.84;31.18;99262.09;5051259;28;908;-62
2022/09/15 09:44:30;;;;;;;;;;;;;;;31.07;31.15;99264.41;5051327;28;868;-61
2022/09/15 09:46:58;;;;;;;;;;;;;;;31.03;30.85;99249.72;5052823;28;818;-61
2022/09/15 09:49:27;;;;;;;;;;;;;;;31.33;30.30;99258.47;5055196;28;1915;-63
2022/09/15 09:52:17;;;;;;;;;;;;;;;31.50;30.13;99252.34;5055131;28;818;-63
2022/09/15 09:54:58;;;;;;;;;;;;;;;31.37;29.75;99248.78;5055059;28;909;-62
2022/09/15 09:57:31;;;;;;;;;;;;;;;31.20;29.79;99247.19;5055445;28;818;-62
2022/09/15 09:59:57;;;;;;;;;;;;;;;31.39;29.41;99243.28;5054950;28;857;-61
2022/09/15 10:02:45;;;;;;;;;;;;;;;31.60;29.29;99238.31;5054903;28;827;-64
2022/09/15 10:05:12;;;;;;;;;;;;;;;31.84;28.89;99236.31;5054959;28;845;-61
2022/09/15 10:07:53;;;;;;;;;;;;;;;31.90;28.52;99239.75;5054888;28;860;-63
2022/09/15 10:10:21;;;;;;;;;;;;;;;31.98;28.74;99229.13;5054714;28;1987;-63
2022/09/15 10:16:05;;;;;;;;;;;;;;;32.19;28.28;99213.97;5038182;28;1723;-61
2022/09/15 10:18:33;;;;;;;;;;;;;;;32.48;27.97;99217.44;5054636;28;886;-62
2022/09/15 10:21:02;;;;;;;;;;;;;;;32.84;27.25;99213.66;5054634;28;880;-63
2022/09/15 10:23:30;;;;;;;;;;;;;;;32.78;27.03;99211.00;5054598;28;798;-62
2022/09/15 10:25:57;;;;;;;;;;;;;;;32.79;27.30;99211.75;5054448;28;779;-62
2022/09/15 10:28:26;;;;;;;;;;;;;;;32.63;27.27;99202.41;5054674;28;826;-64
2022/09/15 10:31:06;;;;;;;;;;;;;;;32.69;27.33;99205.81;5054332;28;1906;-62
2022/09/15 10:36:35;;;;;;;;;;;;;;;33.45;26.31;99204.97;5054324;28;637;-61
2022/09/15 10:51:23;;;;;;;;;;;;;;;33.26;25.99;99191.09;5053940;28;1961;-62
2022/09/15 10:54:08;;;;;;;;;;;;;;;33.29;26.10;99183.47;5053962;28;877;-63
2022/09/15 10:56:43;;;;;;;;;;;;;;;33.41;26.38;99169.47;5052836;28;1479;-62
2022/09/15 10:59:22;;;;;;;;;;;;;;;33.83;26.45;99163.97;5053473;28;818;-62
2022/09/15 11:02:01;;;;;;;;;;;;;;;33.96;26.06;99154.34;5053794;28;962;-63
2022/09/15 11:04:36;;;;;;;;;;;;;;;34.34;25.69;99159.09;5053796;28;814;-62
2022/09/15 11:07:11;;;;;;;;;;;;;;;34.76;24.90;99153.41;5053693;28;873;-62
2022/09/15 11:09:50;;;;;;;;;;;;;;;34.96;24.66;99157.19;5053510;28;1943;-62
2022/09/15 11:24:56;;;;;;;;;;;;;;;35.74;23.75;99142.72;5044478;28;1417;-62
2022/09/15 11:39:36;;;;;;;;;;;;;;;36.81;22.50;99125.94;5053361;28;672;-62
2022/09/15 11:42:08;;;;;;;;;;;;;;;36.68;21.98;99127.13;5053163;28;897;-63
2022/09/15 11:44:38;;;;;;;;;;;;;;;36.76;22.00;99121.22;5053116;28;806;-62
2022/09/15 11:47:07;;;;;;;;;;;;;;;37.03;21.20;99109.56;5052951;28;856;-63
2022/09/15 11:49:44;;;;;;;;;;;;;;;36.94;21.47;99116.09;5052882;28;1894;-63
2022/09/15 11:52:17;;;;;;;;;;;;;;;36.66;21.42;99114.69;5053190;28;806;-62
2022/09/15 11:55:07;;;;;;;;;;;;;;;36.81;21.64;99102.91;5052835;28;818;-62
2022/09/15 11:57:40;;;;;;;;;;;;;;;36.96;21.01;99098.97;5032742;28;1215;-62
2022/09/15 12:03:29;;;;;;;;;;;;;;;37.42;20.57;99092.28;5052687;28;617;-63
2022/09/15 12:05:59;;;;;;;;;;;;;;;37.61;20.73;99088.63;5052609;28;870;-63
2022/09/15 12:08:31;;;;;;;;;;;;;;;38.16;20.56;99086.03;5052747;28;798;-62
2022/09/15 12:10:59;;;;;;;;;;;;;;;38.53;19.62;99089.31;5051494;28;1945;-63
2022/09/15 12:13:26;;;;;;;;;;;;;;;38.32;20.10;99077.72;5052857;28;941;-63
2022/09/15 12:15:54;;;;;;;;;;;;;;;38.08;19.68;99085.44;5052451;28;798;-63
2022/09/15 12:18:39;;;;;;;;;;;;;;;38.05;19.38;99067.25;5052316;28;803;-63
2022/09/15 12:21:10;;;;;;;;;;;;;;;37.88;19.67;99073.97;5052285;28;890;-63
2022/09/15 12:23:41;;;;;;;;;;;;;;;37.58;20.01;99066.81;5051995;28;1309;-64
2022/09/15 12:26:13;;;;;;;;;;;;;;;37.67;19.96;99066.00;5052446;28;861;-64
2022/09/15 12:28:49;;;;;;;;;;;;;;;37.73;19.45;99069.31;5052229;28;810;-64
2022/09/15 12:31:35;;;;;;;;;;;;;;;37.49;19.52;99059.66;5052247;28;1914;-64
2022/09/15 12:34:02;;;;;;;;;;;;;;;37.27;20.07;99061.66;5052141;28;814;-63
2022/09/15 12:36:41;;;;;;;;;;;;;;;37.15;20.40;99063.66;5051983;28;842;-63
2022/09/15 12:39:16;;;;;;;;;;;;;;;37.41;20.13;99056.19;5052289;28;815;-63
2022/09/15 12:44:52;;;;;;;;;;;;;;;37.05;20.42;99043.50;5050635;28;1123;-64
2022/09/15 12:47:34;;;;;;;;;;;;;;;37.09;20.64;99043.81;5051887;28;905;-64
2022/09/15 12:50:21;;;;;;;;;;;;;;;37.35;20.56;99047.09;5051692;28;1945;-63
2022/09/15 12:52:53;;;;;;;;;;;;;;;37.68;20.27;99044.44;5052033;28;798;-65
2022/09/15 12:55:22;;;;;;;;;;;;;;;37.80;19.42;99050.31;5051785;28;881;-63
2022/09/15 12:57:54;;;;;;;;;;;;;;;37.34;19.87;99036.94;5051726;28;869;-64
2022/09/15 13:00:24;;;;;;;;;;;;;;;36.91;19.85;99043.19;5051616;28;913;-63
2022/09/15 13:02:50;;;;;;;;;;;;;;;36.81;20.21;99033.03;5051744;28;901;-63
2022/09/15 13:05:35;;;;;;;;;;;;;;;36.87;20.22;99036.38;5051579;28;846;-64
2022/09/15 13:20:20;;;;;;;;;;;;;;;37.30;19.25;99033.75;5051721;28;786;-63
2022/09/15 13:22:55;;;;;;;;;;;;;;;37.48;19.58;99042.97;5051204;28;869;-63
2022/09/15 13:25:25;;;;;;;;;;;;;;;37.42;19.75;99048.31;5051313;28;1239;-64
2022/09/15 13:30:56;;;;;;;;;;;;;;;37.48;19.64;99034.34;5051363;28;1913;-63
2022/09/15 13:45:56;;;;;;;;;;;;;;;38.46;18.90;99023.13;5051590;28;668;-63
2022/09/15 13:48:39;;;;;;;;;;;;;;;38.39;18.93;99028.47;5051013;28;1467;-64
2022/09/15 13:51:12;;;;;;;;;;;;;;;37.87;18.74;99014.78;5051145;28;1981;-64
2022/09/15 14:05:51;;;;;;;;;;;;;;;36.32;21.24;98995.59;5051347;28;625;-64
2022/09/15 14:08:19;;;;;;;;;;;;;;;36.91;20.04;99005.75;5050966;28;838;-64
2022/09/15 14:10:52;;;;;;;;;;;;;;;37.18;20.14;99001.97;5050904;28;1898;-63
2022/09/15 14:13:31;;;;;;;;;;;;;;;37.22;20.14;99002.25;5051002;28;926;-64
2022/09/15 14:16:02;;;;;;;;;;;;;;;37.54;20.24;98994.44;5050932;28;815;-65
2022/09/15 14:18:29;;;;;;;;;;;;;;;37.64;19.74;98994.41;5049606;28;1218;-65
2022/09/15 14:21:00;;;;;;;;;;;;;;;37.32;19.63;98993.56;5051023;28;889;-64
2022/09/15 14:23:27;;;;;;;;;;;;;;;36.88;19.96;98989.69;5050766;28;1396;-64
2022/09/15 14:25:54;;;;;;;;;;;;;;;36.31;20.55;98986.19;5051058;28;815;-64
2022/09/15 14:28:24;;;;;;;;;;;;;;;35.79;20.77;98995.13;5050987;28;802;-63
2022/09/15 14:30:50;;;;;;;;;;;;;;;35.17;21.51;98987.41;5050743;28;1918;-63
2022/09/15 14:33:17;;;;;;;;;;;;;;;34.80;22.01;98997.97;5050899;28;810;-65
2022/09/15 14:35:44;;;;;;;;;;;;;;;34.73;22.32;98996.72;5054276;28;886;-64
2022/09/15 14:38:23;;;;;;;;;;;;;;;34.70;22.52;99008.66;5054325;28;799;-63
2022/09/15 14:40:52;;;;;;;;;;;;;;;34.80;22.42;99006.59;5069674;28;1159;-63
2022/09/15 14:43:26;;;;;;;;;;;;;;;35.01;22.15;99005.38;5054163;28;818;-64
2022/09/15 14:45:52;;;;;;;;;;;;;;;35.53;22.21;98994.53;5054132;28;858;-63
2022/09/15 14:48:24;;;;;;;;;;;;;;;35.88;21.85;98994.41;5054115;28;850;-63
2022/09/15 14:50:57;;;;;;;;;;;;;;;35.68;21.71;98996.44;5054201;28;1889;-64
2022/09/15 14:53:25;;;;;;;;;;;;;;;35.24;22.40;98994.38;5053982;28;838;-63
2022/09/15 14:55:55;;;;;;;;;;;;;;;34.73;22.89;98993.84;5053967;28;846;-64
2022/09/15 14:58:34;;;;;;;;;;;;;;;34.57;23.18;98986.78;5053793;28;874;-64
2022/09/15 15:01:27;;;;;;;;;;;;;;;34.26;23.50;98989.19;5053873;28;798;-64
2022/09/15 15:04:12;;;;;;;;;;;;;;;33.74;23.78;98990.56;5051990;28;1008;-65
2022/09/15 15:06:39;;;;;;;;;;;;;;;33.48;24.29;98989.03;5053873;28;877;-64
2022/09/15 15:09:08;;;;;;;;;;;;;;;33.26;24.39;98989.91;5053910;28;806;-64
2022/09/15 15:11:35;;;;;;;;;;;;;;;33.16;24.81;98992.66;5053535;28;1886;-64
2022/09/15 15:14:05;;;;;;;;;;;;;;;33.10;25.14;98989.25;5053998;28;853;-64
2022/09/15 15:16:32;;;;;;;;;;;;;;;33.05;25.33;98988.09;5053858;28;878;-64
2022/09/15 15:18:59;;;;;;;;;;;;;;;33.10;25.55;98986.38;5053511;28;855;-64
2022/09/15 15:21:36;;;;;;;;;;;;;;;33.16;25.46;98986.94;5052147;28;1475;-65
2022/09/15 15:24:12;;;;;;;;;;;;;;;33.20;25.63;98981.53;5053147;28;1214;-65
2022/09/15 15:26:40;;;;;;;;;;;;;;;33.12;25.71;98978.75;5053299;28;821;-64
2022/09/15 15:29:08;;;;;;;;;;;;;;;33.02;25.77;98982.78;5053287;28;862;-65
2022/09/15 15:31:37;;;;;;;;;;;;;;;32.88;25.92;98974.44;5068686;28;1914;-64
2022/09/15 15:34:05;;;;;;;;;;;;;;;32.76;25.96;98981.94;5053243;28;819;-64
2022/09/15 15:36:34;;;;;;;;;;;;;;;32.61;26.23;98982.00;5053205;28;854;-63
2022/09/15 15:39:05;;;;;;;;;;;;;;;32.49;26.21;98975.88;5053136;28;810;-64